sensor_id;sensor_type;location;lat;lon;timestamp;temperature;humidity
7686;DHT22;3885;51.474;-2.576;2023-07-22T00:00:58;15.80;99.90
7686;DHT22;3885;51.474;-2.576;2023-07-22T00:03:26;15.80;99.90
7686;DHT22;3885;51.474;-2.576;2023-07-22T00:06:02;15.80;99.90
7686;DHT22;3885;51.474;-2.576;2023-07-22T00:08:31;15.80;99.90
7686;DHT22;3885;51.474;-2.576;2023-07-22T00:10:59;15.80;99.90
7686;DHT22;3885;51.474;-2.576;2023-07-22T00:13:26;15.80;99.90
7686;DHT22;3885;51.474;-2.576;2023-07-22T00:18:21;15.90;99.90
7686;DHT22;3885;51.474;-2.576;2023-07-22T00:20:49;15.90;99.90
7686;DHT22;3885;51.474;-2.576;2023-07-22T00:23:17;15.80;99.90
7686;DHT22;3885;51.474;-2.576;2023-07-22T00:25:45;15.80;99.90
7686;DHT22;3885;51.474;-2.576;2023-07-22T00:28:14;15.80;99.90
7686;DHT22;3885;51.474;-2.576;2023-07-22T00:30:41;15.80;99.90
7686;DHT22;3885;51.474;-2.576;2023-07-22T00:35:35;15.90;99.90
7686;DHT22;3885;51.474;-2.576;2023-07-22T00:38:02;15.90;99.90
7686;DHT22;3885;51.474;-2.576;2023-07-22T00:42:57;15.90;99.90
7686;DHT22;3885;51.474;-2.576;2023-07-22T00:45:26;15.90;99.90
7686;DHT22;3885;51.474;-2.576;2023-07-22T00:47:53;15.90;99.90
7686;DHT22;3885;51.474;-2.576;2023-07-22T00:50:22;15.90;99.90
7686;DHT22;3885;51.474;-2.576;2023-07-22T00:52:49;15.80;99.90
7686;DHT22;3885;51.474;-2.576;2023-07-22T00:55:16;15.70;99.90
7686;DHT22;3885;51.474;-2.576;2023-07-22T01:02:41;15.60;99.90
7686;DHT22;3885;51.474;-2.576;2023-07-22T01:05:09;15.50;99.90
7686;DHT22;3885;51.474;-2.576;2023-07-22T01:07:36;15.50;99.90
7686;DHT22;3885;51.474;-2.576;2023-07-22T01:10:05;15.50;99.90
7686;DHT22;3885;51.474;-2.576;2023-07-22T01:12:32;15.40;99.90
7686;DHT22;3885;51.474;-2.576;2023-07-22T01:14:59;15.40;99.90
7686;DHT22;3885;51.474;-2.576;2023-07-22T01:17:28;15.30;99.90
7686;DHT22;3885;51.474;-2.576;2023-07-22T01:19:57;15.30;99.90
7686;DHT22;3885;51.474;-2.576;2023-07-22T01:22:24;15.40;99.90
7686;DHT22;3885;51.474;-2.576;2023-07-22T01:24:53;15.30;99.90
7686;DHT22;3885;51.474;-2.576;2023-07-22T01:27:20;15.30;99.90
7686;DHT22;3885;51.474;-2.576;2023-07-22T01:29:50;15.30;99.90
7686;DHT22;3885;51.474;-2.576;2023-07-22T01:32:18;15.30;99.90
7686;DHT22;3885;51.474;-2.576;2023-07-22T01:34:45;15.30;99.90
7686;DHT22;3885;51.474;-2.576;2023-07-22T01:37:13;15.30;99.90
7686;DHT22;3885;51.474;-2.576;2023-07-22T01:39:39;15.20;99.90
7686;DHT22;3885;51.474;-2.576;2023-07-22T01:42:08;15.20;99.90
7686;DHT22;3885;51.474;-2.576;2023-07-22T01:44:35;15.20;99.90
7686;DHT22;3885;51.474;-2.576;2023-07-22T01:47:02;15.20;99.90
7686;DHT22;3885;51.474;-2.576;2023-07-22T01:51:57;15.20;99.90
7686;DHT22;3885;51.474;-2.576;2023-07-22T01:56:51;15.10;99.90
7686;DHT22;3885;51.474;-2.576;2023-07-22T02:01:46;15.20;99.90
7686;DHT22;3885;51.474;-2.576;2023-07-22T02:06:41;15.20;99.90
7686;DHT22;3885;51.474;-2.576;2023-07-22T02:09:08;15.20;99.90
7686;DHT22;3885;51.474;-2.576;2023-07-22T02:11:35;15.20;99.90
7686;DHT22;3885;51.474;-2.576;2023-07-22T02:14:02;15.20;99.90
7686;DHT22;3885;51.474;-2.576;2023-07-22T02:16:33;15.10;99.90
7686;DHT22;3885;51.474;-2.576;2023-07-22T02:19:00;15.10;99.90
7686;DHT22;3885;51.474;-2.576;2023-07-22T02:21:27;15.20;99.90
7686;DHT22;3885;51.474;-2.576;2023-07-22T02:23:54;15.10;99.90
7686;DHT22;3885;51.474;-2.576;2023-07-22T02:26:21;15.10;99.90
7686;DHT22;3885;51.474;-2.576;2023-07-22T02:28:49;15.20;99.90
7686;DHT22;3885;51.474;-2.576;2023-07-22T02:31:16;15.10;99.90
7686;DHT22;3885;51.474;-2.576;2023-07-22T02:33:44;15.10;99.90
7686;DHT22;3885;51.474;-2.576;2023-07-22T02:36:12;15.10;99.90
7686;DHT22;3885;51.474;-2.576;2023-07-22T02:41:06;15.00;99.90
7686;DHT22;3885;51.474;-2.576;2023-07-22T02:43:34;15.00;99.90
7686;DHT22;3885;51.474;-2.576;2023-07-22T02:46:01;15.00;99.90
7686;DHT22;3885;51.474;-2.576;2023-07-22T02:48:29;14.90;99.90
7686;DHT22;3885;51.474;-2.576;2023-07-22T02:51:03;14.80;99.90
7686;DHT22;3885;51.474;-2.576;2023-07-22T02:53:31;14.90;99.90
7686;DHT22;3885;51.474;-2.576;2023-07-22T02:55:58;14.80;99.90
7686;DHT22;3885;51.474;-2.576;2023-07-22T02:58:25;14.80;99.90
7686;DHT22;3885;51.474;-2.576;2023-07-22T03:03:19;14.80;99.90
7686;DHT22;3885;51.474;-2.576;2023-07-22T03:05:46;14.70;99.90
7686;DHT22;3885;51.474;-2.576;2023-07-22T03:08:16;14.70;99.90
7686;DHT22;3885;51.474;-2.576;2023-07-22T03:10:44;14.70;99.90
7686;DHT22;3885;51.474;-2.576;2023-07-22T03:13:14;14.70;99.90
7686;DHT22;3885;51.474;-2.576;2023-07-22T03:15:41;14.60;99.90
7686;DHT22;3885;51.474;-2.576;2023-07-22T03:18:08;14.60;99.90
7686;DHT22;3885;51.474;-2.576;2023-07-22T03:20:35;14.60;99.90
7686;DHT22;3885;51.474;-2.576;2023-07-22T03:23:03;14.60;99.90
7686;DHT22;3885;51.474;-2.576;2023-07-22T03:25:32;14.60;99.90
7686;DHT22;3885;51.474;-2.576;2023-07-22T03:28:00;14.60;99.90
7686;DHT22;3885;51.474;-2.576;2023-07-22T03:30:28;14.50;99.90
7686;DHT22;3885;51.474;-2.576;2023-07-22T03:32:55;14.50;99.90
7686;DHT22;3885;51.474;-2.576;2023-07-22T03:35:23;14.50;99.90
7686;DHT22;3885;51.474;-2.576;2023-07-22T03:37:50;14.50;99.90
7686;DHT22;3885;51.474;-2.576;2023-07-22T03:42:46;14.50;99.90
7686;DHT22;3885;51.474;-2.576;2023-07-22T03:45:13;14.50;99.90
7686;DHT22;3885;51.474;-2.576;2023-07-22T03:50:08;14.50;99.90
7686;DHT22;3885;51.474;-2.576;2023-07-22T03:52:35;14.50;99.90
7686;DHT22;3885;51.474;-2.576;2023-07-22T03:55:02;14.40;99.90
7686;DHT22;3885;51.474;-2.576;2023-07-22T03:57:31;14.50;99.90
7686;DHT22;3885;51.474;-2.576;2023-07-22T03:59:59;14.40;99.90
7686;DHT22;3885;51.474;-2.576;2023-07-22T04:02:26;14.40;99.90
7686;DHT22;3885;51.474;-2.576;2023-07-22T04:04:54;14.40;99.90
7686;DHT22;3885;51.474;-2.576;2023-07-22T04:09:49;14.40;99.90
7686;DHT22;3885;51.474;-2.576;2023-07-22T04:12:16;14.40;99.90
7686;DHT22;3885;51.474;-2.576;2023-07-22T04:17:11;14.40;99.90
7686;DHT22;3885;51.474;-2.576;2023-07-22T04:19:40;14.40;99.90
7686;DHT22;3885;51.474;-2.576;2023-07-22T04:22:07;14.40;99.90
7686;DHT22;3885;51.474;-2.576;2023-07-22T04:24:35;14.40;99.90
7686;DHT22;3885;51.474;-2.576;2023-07-22T04:27:04;14.40;99.90
7686;DHT22;3885;51.474;-2.576;2023-07-22T04:29:31;14.30;99.90
7686;DHT22;3885;51.474;-2.576;2023-07-22T04:31:58;14.30;99.90
7686;DHT22;3885;51.474;-2.576;2023-07-22T04:34:29;14.30;99.90
7686;DHT22;3885;51.474;-2.576;2023-07-22T04:36:56;14.30;99.90
7686;DHT22;3885;51.474;-2.576;2023-07-22T04:39:24;14.20;99.90
7686;DHT22;3885;51.474;-2.576;2023-07-22T04:41:51;14.20;99.90
7686;DHT22;3885;51.474;-2.576;2023-07-22T04:44:18;14.20;99.90
7686;DHT22;3885;51.474;-2.576;2023-07-22T04:46:45;14.20;99.90
7686;DHT22;3885;51.474;-2.576;2023-07-22T04:49:13;14.20;99.90
7686;DHT22;3885;51.474;-2.576;2023-07-22T04:51:44;14.20;99.90
7686;DHT22;3885;51.474;-2.576;2023-07-22T04:54:11;14.20;99.90
7686;DHT22;3885;51.474;-2.576;2023-07-22T04:56:38;14.20;99.90
7686;DHT22;3885;51.474;-2.576;2023-07-22T04:59:05;14.30;99.90
7686;DHT22;3885;51.474;-2.576;2023-07-22T05:01:32;14.30;99.90
7686;DHT22;3885;51.474;-2.576;2023-07-22T05:03:59;14.30;99.90
7686;DHT22;3885;51.474;-2.576;2023-07-22T05:06:28;14.30;99.90
7686;DHT22;3885;51.474;-2.576;2023-07-22T05:08:57;14.30;99.90
7686;DHT22;3885;51.474;-2.576;2023-07-22T05:11:23;14.20;99.90
7686;DHT22;3885;51.474;-2.576;2023-07-22T05:13:50;14.20;99.90
7686;DHT22;3885;51.474;-2.576;2023-07-22T05:16:17;14.30;99.90
7686;DHT22;3885;51.474;-2.576;2023-07-22T05:21:13;14.30;99.90
7686;DHT22;3885;51.474;-2.576;2023-07-22T05:23:40;14.30;99.90
7686;DHT22;3885;51.474;-2.576;2023-07-22T05:26:09;14.40;99.90
7686;DHT22;3885;51.474;-2.576;2023-07-22T05:28:36;14.40;99.90
7686;DHT22;3885;51.474;-2.576;2023-07-22T05:31:03;14.40;99.90
7686;DHT22;3885;51.474;-2.576;2023-07-22T05:33:29;14.50;99.90
7686;DHT22;3885;51.474;-2.576;2023-07-22T05:35:56;14.60;99.90
7686;DHT22;3885;51.474;-2.576;2023-07-22T05:38:23;14.50;99.90
7686;DHT22;3885;51.474;-2.576;2023-07-22T05:40:52;14.60;99.90
7686;DHT22;3885;51.474;-2.576;2023-07-22T05:43:20;14.50;99.90
7686;DHT22;3885;51.474;-2.576;2023-07-22T05:45:47;14.60;99.90
7686;DHT22;3885;51.474;-2.576;2023-07-22T05:48:14;14.60;99.90
7686;DHT22;3885;51.474;-2.576;2023-07-22T05:50:41;14.60;99.90
7686;DHT22;3885;51.474;-2.576;2023-07-22T05:53:08;14.60;99.90
7686;DHT22;3885;51.474;-2.576;2023-07-22T05:55:35;14.60;99.90
7686;DHT22;3885;51.474;-2.576;2023-07-22T06:00:33;14.70;99.90
7686;DHT22;3885;51.474;-2.576;2023-07-22T06:03:00;14.70;99.90
7686;DHT22;3885;51.474;-2.576;2023-07-22T06:07:54;14.80;99.90
7686;DHT22;3885;51.474;-2.576;2023-07-22T06:10:22;14.80;99.90
7686;DHT22;3885;51.474;-2.576;2023-07-22T06:12:49;14.90;99.90
7686;DHT22;3885;51.474;-2.576;2023-07-22T06:15:16;15.00;99.90
7686;DHT22;3885;51.474;-2.576;2023-07-22T06:17:44;15.00;99.90
7686;DHT22;3885;51.474;-2.576;2023-07-22T06:20:12;15.00;99.90
7686;DHT22;3885;51.474;-2.576;2023-07-22T06:22:39;15.10;99.90
7686;DHT22;3885;51.474;-2.576;2023-07-22T06:25:06;15.10;99.90
7686;DHT22;3885;51.474;-2.576;2023-07-22T06:27:33;15.20;99.90
7686;DHT22;3885;51.474;-2.576;2023-07-22T06:30:00;15.20;99.90
7686;DHT22;3885;51.474;-2.576;2023-07-22T06:32:29;15.30;99.90
7686;DHT22;3885;51.474;-2.576;2023-07-22T06:34:57;15.30;99.90
7686;DHT22;3885;51.474;-2.576;2023-07-22T06:37:24;15.30;99.90
7686;DHT22;3885;51.474;-2.576;2023-07-22T06:39:51;15.40;99.90
7686;DHT22;3885;51.474;-2.576;2023-07-22T06:42:18;15.40;99.90
7686;DHT22;3885;51.474;-2.576;2023-07-22T06:44:45;15.40;99.90
7686;DHT22;3885;51.474;-2.576;2023-07-22T06:47:12;15.50;99.90
7686;DHT22;3885;51.474;-2.576;2023-07-22T06:49:40;15.60;99.90
7686;DHT22;3885;51.474;-2.576;2023-07-22T06:52:08;15.70;99.90
7686;DHT22;3885;51.474;-2.576;2023-07-22T06:54:35;15.70;99.90
7686;DHT22;3885;51.474;-2.576;2023-07-22T06:57:03;15.70;99.90
7686;DHT22;3885;51.474;-2.576;2023-07-22T06:59:31;15.60;99.90
7686;DHT22;3885;51.474;-2.576;2023-07-22T07:01:58;15.50;99.90
7686;DHT22;3885;51.474;-2.576;2023-07-22T07:04:25;15.60;99.90
7686;DHT22;3885;51.474;-2.576;2023-07-22T07:06:52;15.60;99.90
7686;DHT22;3885;51.474;-2.576;2023-07-22T07:09:21;15.50;99.90
7686;DHT22;3885;51.474;-2.576;2023-07-22T07:11:48;15.50;99.90
7686;DHT22;3885;51.474;-2.576;2023-07-22T07:14:14;15.60;99.90
7686;DHT22;3885;51.474;-2.576;2023-07-22T07:16:41;15.60;99.90
7686;DHT22;3885;51.474;-2.576;2023-07-22T07:19:08;15.70;99.90
7686;DHT22;3885;51.474;-2.576;2023-07-22T07:21:35;15.80;99.90
7686;DHT22;3885;51.474;-2.576;2023-07-22T07:24:02;15.90;99.90
7686;DHT22;3885;51.474;-2.576;2023-07-22T07:28:58;16.00;99.90
7686;DHT22;3885;51.474;-2.576;2023-07-22T07:31:25;15.90;99.90
7686;DHT22;3885;51.474;-2.576;2023-07-22T07:33:53;16.00;99.90
7686;DHT22;3885;51.474;-2.576;2023-07-22T07:36:19;16.00;99.90
7686;DHT22;3885;51.474;-2.576;2023-07-22T07:41:14;16.10;99.90
7686;DHT22;3885;51.474;-2.576;2023-07-22T07:43:42;16.10;99.90
7686;DHT22;3885;51.474;-2.576;2023-07-22T07:46:13;16.20;99.90
7686;DHT22;3885;51.474;-2.576;2023-07-22T07:48:43;16.20;99.90
7686;DHT22;3885;51.474;-2.576;2023-07-22T07:51:11;16.20;99.90
7686;DHT22;3885;51.474;-2.576;2023-07-22T07:56:06;16.20;99.90
7686;DHT22;3885;51.474;-2.576;2023-07-22T07:58:33;16.20;99.90
7686;DHT22;3885;51.474;-2.576;2023-07-22T08:01:02;16.10;99.90
7686;DHT22;3885;51.474;-2.576;2023-07-22T08:03:28;16.00;99.90
7686;DHT22;3885;51.474;-2.576;2023-07-22T08:05:55;16.00;99.90
7686;DHT22;3885;51.474;-2.576;2023-07-22T08:10:58;16.00;99.90
7686;DHT22;3885;51.474;-2.576;2023-07-22T08:13:25;16.00;99.90
7686;DHT22;3885;51.474;-2.576;2023-07-22T08:15:52;16.00;99.90
7686;DHT22;3885;51.474;-2.576;2023-07-22T08:18:20;15.90;99.90
7686;DHT22;3885;51.474;-2.576;2023-07-22T08:20:47;15.90;99.90
7686;DHT22;3885;51.474;-2.576;2023-07-22T08:23:14;15.80;99.90
7686;DHT22;3885;51.474;-2.576;2023-07-22T08:25:41;15.90;99.90
7686;DHT22;3885;51.474;-2.576;2023-07-22T08:28:08;15.90;99.90
7686;DHT22;3885;51.474;-2.576;2023-07-22T08:30:35;15.90;99.90
7686;DHT22;3885;51.474;-2.576;2023-07-22T08:35:31;15.90;99.90
7686;DHT22;3885;51.474;-2.576;2023-07-22T08:37:58;16.00;99.90
7686;DHT22;3885;51.474;-2.576;2023-07-22T08:40:25;15.90;99.90
7686;DHT22;3885;51.474;-2.576;2023-07-22T08:42:52;15.90;99.90
7686;DHT22;3885;51.474;-2.576;2023-07-22T08:45:20;15.90;99.90
7686;DHT22;3885;51.474;-2.576;2023-07-22T08:52:49;15.70;99.90
7686;DHT22;3885;51.474;-2.576;2023-07-22T08:55:16;15.70;99.90
7686;DHT22;3885;51.474;-2.576;2023-07-22T08:57:43;15.70;99.90
7686;DHT22;3885;51.474;-2.576;2023-07-22T09:00:12;15.70;99.90
7686;DHT22;3885;51.474;-2.576;2023-07-22T09:05:08;15.60;99.90
7686;DHT22;3885;51.474;-2.576;2023-07-22T09:07:36;15.60;99.90
7686;DHT22;3885;51.474;-2.576;2023-07-22T09:10:07;15.70;99.90
7686;DHT22;3885;51.474;-2.576;2023-07-22T09:12:35;15.60;99.90
7686;DHT22;3885;51.474;-2.576;2023-07-22T09:15:08;15.60;99.90
7686;DHT22;3885;51.474;-2.576;2023-07-22T09:25:14;15.70;99.90
7686;DHT22;3885;51.474;-2.576;2023-07-22T09:27:41;15.70;99.90
7686;DHT22;3885;51.474;-2.576;2023-07-22T09:30:25;15.70;99.90
7686;DHT22;3885;51.474;-2.576;2023-07-22T09:32:53;15.80;99.90
7686;DHT22;3885;51.474;-2.576;2023-07-22T09:35:20;15.80;99.90
7686;DHT22;3885;51.474;-2.576;2023-07-22T09:37:48;15.70;99.90
7686;DHT22;3885;51.474;-2.576;2023-07-22T09:40:18;15.70;99.90
7686;DHT22;3885;51.474;-2.576;2023-07-22T09:45:13;15.70;99.90
7686;DHT22;3885;51.474;-2.576;2023-07-22T09:47:41;15.70;99.90
7686;DHT22;3885;51.474;-2.576;2023-07-22T09:50:11;15.70;99.90
7686;DHT22;3885;51.474;-2.576;2023-07-22T09:52:46;15.70;99.90
7686;DHT22;3885;51.474;-2.576;2023-07-22T09:55:19;15.80;99.90
7686;DHT22;3885;51.474;-2.576;2023-07-22T09:57:49;15.70;99.90
7686;DHT22;3885;51.474;-2.576;2023-07-22T10:00:16;15.60;99.90
7686;DHT22;3885;51.474;-2.576;2023-07-22T10:05:15;15.80;99.90
7686;DHT22;3885;51.474;-2.576;2023-07-22T10:07:44;15.90;99.90
7686;DHT22;3885;51.474;-2.576;2023-07-22T10:10:12;15.80;99.90
7686;DHT22;3885;51.474;-2.576;2023-07-22T10:12:42;15.90;99.90
7686;DHT22;3885;51.474;-2.576;2023-07-22T10:17:37;15.90;99.90
7686;DHT22;3885;51.474;-2.576;2023-07-22T10:25:05;15.90;99.90
7686;DHT22;3885;51.474;-2.576;2023-07-22T10:27:34;16.00;99.90
7686;DHT22;3885;51.474;-2.576;2023-07-22T10:30:03;15.90;99.90
7686;DHT22;3885;51.474;-2.576;2023-07-22T10:32:35;15.90;99.90
7686;DHT22;3885;51.474;-2.576;2023-07-22T10:35:03;15.80;99.90
7686;DHT22;3885;51.474;-2.576;2023-07-22T10:37:31;15.80;99.90
7686;DHT22;3885;51.474;-2.576;2023-07-22T10:40:16;15.80;99.90
7686;DHT22;3885;51.474;-2.576;2023-07-22T10:42:51;15.80;99.90
7686;DHT22;3885;51.474;-2.576;2023-07-22T10:45:27;15.80;99.90
7686;DHT22;3885;51.474;-2.576;2023-07-22T10:48:03;15.80;99.90
7686;DHT22;3885;51.474;-2.576;2023-07-22T10:50:43;15.70;99.90
7686;DHT22;3885;51.474;-2.576;2023-07-22T10:53:13;15.80;99.90
7686;DHT22;3885;51.474;-2.576;2023-07-22T10:56:03;15.80;99.90
7686;DHT22;3885;51.474;-2.576;2023-07-22T10:58:30;15.80;99.90
7686;DHT22;3885;51.474;-2.576;2023-07-22T11:01:21;15.80;99.90
7686;DHT22;3885;51.474;-2.576;2023-07-22T11:09:04;15.80;99.90
7686;DHT22;3885;51.474;-2.576;2023-07-22T11:11:38;15.80;99.90
7686;DHT22;3885;51.474;-2.576;2023-07-22T11:14:15;19.60;99.90
7686;DHT22;3885;51.474;-2.576;2023-07-22T11:16:45;15.80;99.90
7686;DHT22;3885;51.474;-2.576;2023-07-22T11:19:13;15.90;99.90
7686;DHT22;3885;51.474;-2.576;2023-07-22T11:21:40;15.90;99.90
7686;DHT22;3885;51.474;-2.576;2023-07-22T11:24:08;15.90;99.90
7686;DHT22;3885;51.474;-2.576;2023-07-22T11:26:35;15.90;99.90
7686;DHT22;3885;51.474;-2.576;2023-07-22T11:29:02;15.90;99.90
7686;DHT22;3885;51.474;-2.576;2023-07-22T11:31:33;16.00;99.90
7686;DHT22;3885;51.474;-2.576;2023-07-22T11:34:03;16.10;99.90
7686;DHT22;3885;51.474;-2.576;2023-07-22T11:36:31;16.20;99.90
7686;DHT22;3885;51.474;-2.576;2023-07-22T11:39:03;16.20;99.90
7686;DHT22;3885;51.474;-2.576;2023-07-22T11:41:31;16.10;99.90
7686;DHT22;3885;51.474;-2.576;2023-07-22T11:43:59;16.10;99.90
7686;DHT22;3885;51.474;-2.576;2023-07-22T11:46:26;16.10;99.90
7686;DHT22;3885;51.474;-2.576;2023-07-22T11:48:54;16.10;99.90
7686;DHT22;3885;51.474;-2.576;2023-07-22T11:51:24;16.00;99.90
7686;DHT22;3885;51.474;-2.576;2023-07-22T11:53:52;16.10;99.90
7686;DHT22;3885;51.474;-2.576;2023-07-22T11:56:21;16.10;99.90
7686;DHT22;3885;51.474;-2.576;2023-07-22T11:58:49;16.10;99.90
7686;DHT22;3885;51.474;-2.576;2023-07-22T12:01:16;16.10;99.90
7686;DHT22;3885;51.474;-2.576;2023-07-22T12:03:43;16.20;99.90
7686;DHT22;3885;51.474;-2.576;2023-07-22T12:06:11;16.30;99.90
7686;DHT22;3885;51.474;-2.576;2023-07-22T12:08:45;16.30;99.90
7686;DHT22;3885;51.474;-2.576;2023-07-22T12:11:18;16.40;99.90
7686;DHT22;3885;51.474;-2.576;2023-07-22T12:13:46;16.40;99.90
7686;DHT22;3885;51.474;-2.576;2023-07-22T12:16:21;16.50;99.90
7686;DHT22;3885;51.474;-2.576;2023-07-22T12:18:49;16.50;99.90
7686;DHT22;3885;51.474;-2.576;2023-07-22T12:21:16;16.60;99.90
7686;DHT22;3885;51.474;-2.576;2023-07-22T12:23:46;16.60;99.90
7686;DHT22;3885;51.474;-2.576;2023-07-22T12:28:40;16.70;99.90
7686;DHT22;3885;51.474;-2.576;2023-07-22T12:31:07;16.70;99.90
7686;DHT22;3885;51.474;-2.576;2023-07-22T12:33:35;16.80;99.90
7686;DHT22;3885;51.474;-2.576;2023-07-22T12:38:29;16.80;99.90
7686;DHT22;3885;51.474;-2.576;2023-07-22T12:40:57;16.80;99.90
7686;DHT22;3885;51.474;-2.576;2023-07-22T12:43:24;16.80;99.90
7686;DHT22;3885;51.474;-2.576;2023-07-22T12:45:51;16.90;99.90
7686;DHT22;3885;51.474;-2.576;2023-07-22T12:48:18;17.00;99.90
7686;DHT22;3885;51.474;-2.576;2023-07-22T12:50:45;17.10;99.90
7686;DHT22;3885;51.474;-2.576;2023-07-22T12:53:13;17.30;99.90
7686;DHT22;3885;51.474;-2.576;2023-07-22T12:55:40;17.40;99.90
7686;DHT22;3885;51.474;-2.576;2023-07-22T12:58:08;17.40;99.90
7686;DHT22;3885;51.474;-2.576;2023-07-22T13:00:35;17.50;99.90
7686;DHT22;3885;51.474;-2.576;2023-07-22T13:03:03;17.60;99.90
7686;DHT22;3885;51.474;-2.576;2023-07-22T13:05:30;17.80;99.90
7686;DHT22;3885;51.474;-2.576;2023-07-22T13:07:57;17.70;99.90
7686;DHT22;3885;51.474;-2.576;2023-07-22T13:10:26;17.70;99.90
7686;DHT22;3885;51.474;-2.576;2023-07-22T13:12:54;17.70;99.90
7686;DHT22;3885;51.474;-2.576;2023-07-22T13:15:22;17.80;99.90
7686;DHT22;3885;51.474;-2.576;2023-07-22T13:20:17;17.80;99.90
7686;DHT22;3885;51.474;-2.576;2023-07-22T13:25:11;17.90;99.90
7686;DHT22;3885;51.474;-2.576;2023-07-22T13:27:38;17.70;99.90
7686;DHT22;3885;51.474;-2.576;2023-07-22T13:30:07;17.70;99.90
7686;DHT22;3885;51.474;-2.576;2023-07-22T13:32:35;17.70;99.90
7686;DHT22;3885;51.474;-2.576;2023-07-22T13:35:03;17.80;99.90
7686;DHT22;3885;51.474;-2.576;2023-07-22T13:37:30;17.80;99.90
7686;DHT22;3885;51.474;-2.576;2023-07-22T13:39:57;17.90;99.90
7686;DHT22;3885;51.474;-2.576;2023-07-22T13:42:24;17.90;99.90
7686;DHT22;3885;51.474;-2.576;2023-07-22T13:44:51;17.90;99.90
7686;DHT22;3885;51.474;-2.576;2023-07-22T13:47:18;18.00;99.90
7686;DHT22;3885;51.474;-2.576;2023-07-22T13:49:46;17.90;99.90
7686;DHT22;3885;51.474;-2.576;2023-07-22T13:52:13;17.80;99.90
7686;DHT22;3885;51.474;-2.576;2023-07-22T13:54:40;17.80;99.90
7686;DHT22;3885;51.474;-2.576;2023-07-22T13:57:07;17.80;99.90
7686;DHT22;3885;51.474;-2.576;2023-07-22T13:59:34;17.80;99.90
7686;DHT22;3885;51.474;-2.576;2023-07-22T14:02:01;17.80;99.90
7686;DHT22;3885;51.474;-2.576;2023-07-22T14:04:28;17.80;99.90
7686;DHT22;3885;51.474;-2.576;2023-07-22T14:06:57;17.80;99.90
7686;DHT22;3885;51.474;-2.576;2023-07-22T14:09:24;17.90;99.90
7686;DHT22;3885;51.474;-2.576;2023-07-22T14:11:50;18.00;99.90
7686;DHT22;3885;51.474;-2.576;2023-07-22T14:14:17;18.00;99.90
7686;DHT22;3885;51.474;-2.576;2023-07-22T14:16:45;18.10;99.90
7686;DHT22;3885;51.474;-2.576;2023-07-22T14:19:12;18.20;99.90
7686;DHT22;3885;51.474;-2.576;2023-07-22T14:21:39;18.20;99.90
7686;DHT22;3885;51.474;-2.576;2023-07-22T14:24:07;18.20;99.90
7686;DHT22;3885;51.474;-2.576;2023-07-22T14:26:34;18.30;99.90
7686;DHT22;3885;51.474;-2.576;2023-07-22T14:29:01;18.30;99.90
7686;DHT22;3885;51.474;-2.576;2023-07-22T14:33:55;18.50;99.90
7686;DHT22;3885;51.474;-2.576;2023-07-22T14:36:22;18.50;99.90
7686;DHT22;3885;51.474;-2.576;2023-07-22T14:38:50;18.50;99.90
7686;DHT22;3885;51.474;-2.576;2023-07-22T14:41:18;18.40;99.90
7686;DHT22;3885;51.474;-2.576;2023-07-22T14:46:13;18.30;99.90
7686;DHT22;3885;51.474;-2.576;2023-07-22T14:48:39;18.30;99.90
7686;DHT22;3885;51.474;-2.576;2023-07-22T14:51:08;18.30;99.90
7686;DHT22;3885;51.474;-2.576;2023-07-22T14:53:35;18.30;99.90
7686;DHT22;3885;51.474;-2.576;2023-07-22T14:56:02;18.40;99.90
7686;DHT22;3885;51.474;-2.576;2023-07-22T15:00:57;18.50;99.90
7686;DHT22;3885;51.474;-2.576;2023-07-22T15:03:24;18.60;99.90
7686;DHT22;3885;51.474;-2.576;2023-07-22T15:05:51;18.60;99.90
7686;DHT22;3885;51.474;-2.576;2023-07-22T15:08:18;18.70;99.90
7686;DHT22;3885;51.474;-2.576;2023-07-22T15:10:45;18.90;99.90
7686;DHT22;3885;51.474;-2.576;2023-07-22T15:13:12;19.00;99.90
7686;DHT22;3885;51.474;-2.576;2023-07-22T15:15:40;19.10;99.90
7686;DHT22;3885;51.474;-2.576;2023-07-22T15:18:07;19.10;99.90
7686;DHT22;3885;51.474;-2.576;2023-07-22T15:20:35;19.10;99.90
7686;DHT22;3885;51.474;-2.576;2023-07-22T15:23:02;19.10;99.90
7686;DHT22;3885;51.474;-2.576;2023-07-22T15:25:29;19.10;99.90
7686;DHT22;3885;51.474;-2.576;2023-07-22T15:27:56;19.10;99.90
7686;DHT22;3885;51.474;-2.576;2023-07-22T15:30:23;19.00;99.90
7686;DHT22;3885;51.474;-2.576;2023-07-22T15:32:51;19.10;99.90
7686;DHT22;3885;51.474;-2.576;2023-07-22T15:35:18;19.20;99.90
7686;DHT22;3885;51.474;-2.576;2023-07-22T15:37:45;19.30;99.90
7686;DHT22;3885;51.474;-2.576;2023-07-22T15:40:12;19.20;99.90
7686;DHT22;3885;51.474;-2.576;2023-07-22T15:45:07;19.30;99.90
7686;DHT22;3885;51.474;-2.576;2023-07-22T15:47:35;19.30;99.90
7686;DHT22;3885;51.474;-2.576;2023-07-22T15:50:03;19.30;99.90
7686;DHT22;3885;51.474;-2.576;2023-07-22T15:54:58;19.30;99.90
7686;DHT22;3885;51.474;-2.576;2023-07-22T15:57:25;19.20;99.90
7686;DHT22;3885;51.474;-2.576;2023-07-22T15:59:51;19.30;99.90
7686;DHT22;3885;51.474;-2.576;2023-07-22T16:02:18;19.20;99.90
7686;DHT22;3885;51.474;-2.576;2023-07-22T16:04:45;19.20;99.90
7686;DHT22;3885;51.474;-2.576;2023-07-22T16:07:14;19.20;99.90
7686;DHT22;3885;51.474;-2.576;2023-07-22T16:09:41;19.00;99.90
7686;DHT22;3885;51.474;-2.576;2023-07-22T16:12:08;19.00;99.90
7686;DHT22;3885;51.474;-2.576;2023-07-22T16:14:36;18.90;99.90
7686;DHT22;3885;51.474;-2.576;2023-07-22T16:19:30;18.80;99.90
7686;DHT22;3885;51.474;-2.576;2023-07-22T16:21:57;18.80;99.90
7686;DHT22;3885;51.474;-2.576;2023-07-22T16:29:20;18.80;99.90
7686;DHT22;3885;51.474;-2.576;2023-07-22T16:31:46;18.80;99.90
7686;DHT22;3885;51.474;-2.576;2023-07-22T16:34:13;18.90;99.90
7686;DHT22;3885;51.474;-2.576;2023-07-22T16:36:40;18.90;99.90
7686;DHT22;3885;51.474;-2.576;2023-07-22T16:39:07;18.80;99.90
7686;DHT22;3885;51.474;-2.576;2023-07-22T16:41:36;18.70;99.90
7686;DHT22;3885;51.474;-2.576;2023-07-22T16:46:31;18.50;99.90
7686;DHT22;3885;51.474;-2.576;2023-07-22T16:51:26;18.50;99.90
7686;DHT22;3885;51.474;-2.576;2023-07-22T16:53:53;18.50;99.90
7686;DHT22;3885;51.474;-2.576;2023-07-22T16:56:20;18.50;99.90
7686;DHT22;3885;51.474;-2.576;2023-07-22T17:03:43;18.50;99.90
7686;DHT22;3885;51.474;-2.576;2023-07-22T17:06:10;18.50;99.90
7686;DHT22;3885;51.474;-2.576;2023-07-22T17:08:37;18.50;99.90
7686;DHT22;3885;51.474;-2.576;2023-07-22T17:11:04;18.50;99.90
7686;DHT22;3885;51.474;-2.576;2023-07-22T17:13:31;18.40;99.90
7686;DHT22;3885;51.474;-2.576;2023-07-22T17:15:59;18.40;99.90
7686;DHT22;3885;51.474;-2.576;2023-07-22T17:18:26;18.30;99.90
7686;DHT22;3885;51.474;-2.576;2023-07-22T17:20:53;18.30;99.90
7686;DHT22;3885;51.474;-2.576;2023-07-22T17:23:20;18.30;99.90
7686;DHT22;3885;51.474;-2.576;2023-07-22T17:25:47;18.30;99.90
7686;DHT22;3885;51.474;-2.576;2023-07-22T17:28:13;18.30;99.90
7686;DHT22;3885;51.474;-2.576;2023-07-22T17:30:40;18.20;99.90
7686;DHT22;3885;51.474;-2.576;2023-07-22T17:33:09;18.20;99.90
7686;DHT22;3885;51.474;-2.576;2023-07-22T17:35:36;18.20;99.90
7686;DHT22;3885;51.474;-2.576;2023-07-22T17:38:05;18.10;99.90
7686;DHT22;3885;51.474;-2.576;2023-07-22T17:40:32;18.10;99.90
7686;DHT22;3885;51.474;-2.576;2023-07-22T17:42:58;18.10;99.90
7686;DHT22;3885;51.474;-2.576;2023-07-22T17:45:25;18.10;99.90
7686;DHT22;3885;51.474;-2.576;2023-07-22T17:47:52;18.00;99.90
7686;DHT22;3885;51.474;-2.576;2023-07-22T17:50:21;17.90;99.90
7686;DHT22;3885;51.474;-2.576;2023-07-22T17:52:48;17.80;99.90
7686;DHT22;3885;51.474;-2.576;2023-07-22T17:55:15;17.80;99.90
7686;DHT22;3885;51.474;-2.576;2023-07-22T17:57:43;17.70;99.90